createdAt,value
2018-08-16T00:00:29.490Z,88.22
2018-08-16T00:01:29.477Z,88.12
2018-08-16T00:02:29.463Z,88.51
2018-08-16T00:03:29.447Z,89.08
2018-08-16T00:04:29.431Z,89.27
2018-08-16T00:05:29.415Z,89.18
2018-08-16T00:06:29.399Z,89.37
2018-08-16T00:07:29.389Z,89.56
2018-08-16T00:08:29.377Z,89.75
2018-08-16T00:09:29.360Z,90.04
2018-08-16T00:10:29.343Z,90.00
2018-08-16T00:11:29.329Z,91.05
2018-08-16T00:12:29.317Z,91.53
2018-08-16T00:13:29.303Z,90.76
2018-08-16T00:14:29.284Z,90.33
2018-08-16T00:15:29.268Z,90.95
2018-08-16T00:16:29.253Z,90.67
2018-08-16T00:17:29.238Z,91.48
2018-08-16T00:18:29.221Z,91.43
2018-08-16T00:19:29.208Z,90.81
2018-08-16T00:20:29.192Z,90.90
2018-08-16T00:21:29.178Z,90.00
2018-08-16T00:22:29.165Z,90.33
2018-08-16T00:23:29.160Z,90.14
2018-08-16T00:24:29.138Z,90.23
2018-08-16T00:25:29.119Z,90.47
2018-08-16T00:26:29.103Z,90.33
2018-08-16T00:27:29.088Z,90.71
2018-08-16T00:28:29.072Z,90.61
2018-08-16T00:29:29.058Z,89.56
2018-08-16T00:30:29.048Z,89.94
2018-08-16T00:31:29.030Z,89.94
2018-08-16T00:32:29.014Z,90.42
2018-08-16T00:33:28.998Z,90.23
2018-08-16T00:34:28.990Z,90.42
2018-08-16T00:35:28.973Z,90.61
2018-08-16T00:36:28.950Z,90.14
2018-08-16T00:37:28.936Z,90.61
2018-08-16T00:38:28.921Z,90.76
2018-08-16T00:39:28.906Z,90.61
2018-08-16T00:40:28.895Z,90.61
2018-08-16T00:41:28.879Z,90.86
2018-08-16T00:42:28.861Z,91.43
2018-08-16T00:43:28.848Z,91.53
2018-08-16T00:44:28.833Z,91.53
2018-08-16T00:45:28.815Z,91.14
2018-08-16T00:46:28.801Z,91.24
2018-08-16T00:47:28.785Z,91.34
2018-08-16T00:48:28.771Z,92.01
2018-08-16T00:49:28.756Z,91.91
2018-08-16T00:50:28.740Z,91.91
2018-08-16T00:51:28.726Z,91.82
2018-08-16T00:52:28.709Z,91.53
2018-08-16T00:53:28.692Z,91.91
2018-08-16T00:54:28.676Z,91.91
2018-08-16T00:55:28.664Z,92.06
2018-08-16T00:56:28.646Z,92.06
2018-08-16T00:57:28.633Z,92.15
2018-08-16T00:58:28.618Z,92.68
2018-08-16T00:59:28.603Z,92.77
2018-08-16T01:00:28.585Z,92.58
2018-08-16T01:01:28.571Z,92.87
2018-08-16T01:02:28.557Z,92.35
2018-08-16T01:03:28.540Z,92.01
2018-08-16T01:04:28.523Z,91.91
2018-08-16T01:05:28.513Z,92.20
2018-08-16T01:06:28.496Z,92.01
2018-08-16T01:07:28.478Z,92.58
2018-08-16T01:08:28.465Z,92.49
2018-08-16T01:09:28.448Z,91.72
2018-08-16T01:10:28.434Z,92.10
2018-08-16T01:11:28.417Z,91.91
2018-08-16T01:12:28.403Z,91.53
2018-08-16T01:13:28.387Z,91.14
2018-08-16T01:14:28.372Z,91.91
2018-08-16T01:15:28.357Z,91.43
2018-08-16T01:16:28.340Z,91.82
2018-08-16T01:17:28.327Z,91.72
2018-08-16T01:18:28.311Z,92.20
2018-08-16T01:19:28.296Z,91.53
2018-08-16T01:20:28.279Z,92.01
2018-08-16T01:21:28.264Z,91.53
2018-08-16T01:22:28.250Z,91.72
2018-08-16T01:23:28.284Z,91.63
2018-08-16T01:24:28.218Z,92.68
2018-08-16T01:25:28.205Z,91.53
2018-08-16T01:26:28.187Z,91.24
2018-08-16T01:27:28.174Z,91.53
2018-08-16T01:28:28.155Z,91.43
2018-08-16T01:29:28.141Z,92.10
2018-08-16T01:30:28.124Z,91.91
2018-08-16T01:31:28.109Z,91.67
2018-08-16T01:32:28.097Z,92.10
2018-08-16T01:33:28.078Z,92.01
2018-08-16T01:34:28.063Z,92.68
2018-08-16T01:35:28.067Z,92.73
2018-08-16T01:36:28.031Z,93.02
2018-08-16T01:37:28.016Z,92.82
2018-08-16T01:38:28.000Z,93.02
2018-08-16T01:39:27.989Z,92.82
2018-08-16T01:40:27.969Z,93.59
2018-08-16T01:41:27.953Z,93.30
2018-08-16T01:42:27.939Z,93.30
2018-08-16T01:43:27.925Z,93.30
2018-08-16T01:44:27.906Z,93.40
2018-08-16T01:45:27.897Z,93.40
2018-08-16T01:46:27.878Z,93.21
2018-08-16T01:47:27.862Z,93.40
2018-08-16T01:48:27.847Z,93.30
2018-08-16T01:49:27.830Z,92.63
2018-08-16T01:50:27.819Z,92.54
2018-08-16T01:51:27.799Z,91.67
2018-08-16T01:52:27.787Z,92.73
2018-08-16T01:53:27.768Z,92.54
2018-08-16T01:54:27.753Z,92.15
2018-08-16T01:55:27.753Z,91.77
2018-08-16T01:56:27.718Z,91.86
2018-08-16T01:57:27.707Z,91.96
2018-08-16T01:58:27.698Z,92.73
2018-08-16T01:59:27.676Z,92.73
2018-08-16T02:00:27.661Z,92.73
2018-08-16T02:01:27.646Z,91.96
2018-08-16T02:02:27.634Z,91.86
2018-08-16T02:03:27.614Z,91.67
2018-08-16T02:04:27.596Z,91.67
2018-08-16T02:05:27.584Z,92.73
2018-08-16T02:06:27.564Z,92.82
2018-08-16T02:07:27.561Z,93.49
2018-08-16T02:08:27.534Z,93.49
2018-08-16T02:09:27.518Z,93.21
2018-08-16T02:10:27.505Z,93.30
2018-08-16T02:11:27.492Z,93.88
2018-08-16T02:12:27.473Z,93.59
2018-08-16T02:13:27.457Z,93.59
2018-08-16T02:14:27.441Z,94.26
2018-08-16T02:15:27.430Z,93.78
2018-08-16T02:16:27.411Z,93.78
2018-08-16T02:17:27.396Z,93.98
2018-08-16T02:18:27.380Z,93.78
2018-08-16T02:19:27.362Z,93.40
2018-08-16T02:20:27.350Z,93.40
2018-08-16T02:21:27.332Z,93.30
2018-08-16T02:22:27.316Z,93.69
2018-08-16T02:23:27.300Z,93.49
2018-08-16T02:24:27.283Z,93.30
2018-08-16T02:25:27.268Z,92.92
2018-08-16T02:26:27.252Z,93.59
2018-08-16T02:27:27.239Z,93.11
2018-08-16T02:28:27.221Z,94.07
2018-08-16T02:29:27.205Z,94.17
2018-08-16T02:30:27.196Z,93.88
2018-08-16T02:31:27.179Z,94.93
2018-08-16T02:32:27.164Z,94.26
2018-08-16T02:33:27.178Z,94.26
2018-08-16T02:34:27.128Z,94.26
2018-08-16T02:35:28.122Z,94.07
2018-08-16T02:36:27.095Z,93.49
2018-08-16T02:37:27.080Z,92.73
2018-08-16T02:38:27.064Z,93.40
2018-08-16T02:39:27.048Z,93.21
2018-08-16T02:40:27.031Z,93.21
2018-08-16T02:41:27.021Z,92.44
2018-08-16T02:42:26.999Z,92.54
2018-08-16T02:43:26.988Z,93.30
2018-08-16T02:44:26.967Z,93.49
2018-08-16T02:45:26.951Z,93.40
2018-08-16T02:46:26.943Z,93.78
2018-08-16T02:47:26.923Z,93.49
2018-08-16T02:48:26.913Z,93.98
2018-08-16T02:49:26.889Z,94.17
2018-08-16T02:50:26.888Z,94.55
2018-08-16T02:51:26.859Z,94.26
2018-08-16T02:52:26.886Z,93.98
2018-08-16T02:53:26.828Z,94.35
2018-08-16T02:54:26.816Z,94.26
2018-08-16T02:55:26.800Z,93.88
2018-08-16T02:56:26.782Z,94.55
2018-08-16T02:57:26.765Z,94.17
2018-08-16T02:58:26.749Z,94.17
2018-08-16T02:59:26.733Z,94.17
2018-08-16T03:00:26.716Z,93.78
2018-08-16T03:01:26.700Z,94.07
2018-08-16T03:02:26.688Z,94.17
2018-08-16T03:03:26.675Z,93.30
2018-08-16T03:04:26.653Z,93.11
2018-08-16T03:05:26.637Z,92.54
2018-08-16T03:06:26.621Z,92.25
2018-08-16T03:07:26.610Z,91.86
2018-08-16T03:08:26.589Z,91.67
2018-08-16T03:09:26.583Z,91.86
2018-08-16T03:10:26.561Z,92.06
2018-08-16T03:11:26.541Z,92.06
2018-08-16T03:12:26.526Z,92.25
2018-08-16T03:13:26.514Z,91.77
2018-08-16T03:14:26.494Z,91.77
2018-08-16T03:15:26.480Z,91.77
2018-08-16T03:16:26.511Z,92.82
2018-08-16T03:17:26.446Z,92.54
2018-08-16T03:18:26.436Z,91.86
2018-08-16T03:19:26.416Z,92.63
2018-08-16T03:20:26.398Z,92.06
2018-08-16T03:21:26.382Z,92.25
2018-08-16T03:22:26.372Z,92.63
2018-08-16T03:23:26.362Z,92.25
2018-08-16T03:24:26.336Z,92.25
2018-08-16T03:25:26.321Z,92.63
2018-08-16T03:26:26.307Z,93.35
2018-08-16T03:27:26.289Z,93.49
2018-08-16T03:28:26.271Z,93.54
2018-08-16T03:29:26.256Z,93.26
2018-08-16T03:30:26.243Z,93.74
2018-08-16T03:31:26.225Z,93.26
2018-08-16T03:32:26.208Z,94.40
2018-08-16T03:33:26.198Z,94.02
2018-08-16T03:34:26.182Z,94.60
2018-08-16T03:35:26.281Z,94.02
2018-08-16T03:36:26.182Z,94.50
2018-08-16T03:37:26.133Z,93.93
2018-08-16T03:38:26.117Z,94.12
2018-08-16T03:39:26.104Z,93.83
2018-08-16T03:40:26.082Z,94.12
2018-08-16T03:41:26.062Z,94.12
2018-08-16T03:42:26.047Z,94.31
2018-08-16T03:43:26.030Z,94.50
2018-08-16T03:44:26.019Z,94.02
2018-08-16T03:45:25.993Z,94.12
2018-08-16T03:46:25.978Z,93.35
2018-08-16T03:47:25.961Z,93.54
2018-08-16T03:48:25.943Z,93.54
2018-08-16T03:49:25.934Z,93.45
2018-08-16T03:50:25.913Z,94.02
2018-08-16T03:51:25.892Z,94.12
2018-08-16T03:52:25.877Z,94.12
2018-08-16T03:53:25.857Z,93.93
2018-08-16T03:54:25.841Z,93.35
2018-08-16T03:55:25.828Z,93.93
2018-08-16T03:56:25.816Z,94.02
2018-08-16T03:57:25.786Z,94.02
2018-08-16T03:58:25.773Z,94.21
2018-08-16T03:59:25.760Z,94.21
2018-08-16T04:00:25.769Z,94.07
2018-08-16T04:01:25.721Z,94.31
2018-08-16T04:02:25.698Z,94.40
2018-08-16T04:03:25.684Z,94.21
2018-08-16T04:04:25.665Z,94.36
2018-08-16T04:05:25.649Z,95.17
2018-08-16T04:06:25.631Z,94.31
2018-08-16T04:07:25.615Z,94.12
2018-08-16T04:08:25.593Z,94.12
2018-08-16T04:09:25.602Z,94.40
2018-08-16T04:10:25.565Z,94.89
2018-08-16T04:11:25.540Z,94.21
2018-08-16T04:12:25.523Z,94.40
2018-08-16T04:13:25.503Z,94.12
2018-08-16T04:14:25.488Z,93.93
2018-08-16T04:15:25.469Z,94.40
2018-08-16T04:16:25.452Z,94.69
2018-08-16T04:17:25.431Z,95.12
2018-08-16T04:18:25.418Z,95.89
2018-08-16T04:19:25.395Z,95.89
2018-08-16T04:20:25.381Z,96.18
2018-08-16T04:21:25.360Z,96.08
2018-08-16T04:22:25.347Z,95.98
2018-08-16T04:23:25.325Z,95.98
2018-08-16T04:24:25.321Z,96.37
2018-08-16T04:25:25.292Z,96.66
2018-08-16T04:26:25.273Z,96.18
2018-08-16T04:27:25.251Z,96.08
2018-08-16T04:28:25.236Z,96.37
2018-08-16T04:29:25.235Z,96.37
2018-08-16T04:30:25.201Z,95.89
2018-08-16T04:31:25.185Z,95.79
2018-08-16T04:32:25.164Z,95.89
2018-08-16T04:33:25.145Z,96.08
2018-08-16T04:34:25.126Z,95.89
2018-08-16T04:35:25.191Z,95.94
2018-08-16T04:36:25.088Z,95.56
2018-08-16T04:37:25.070Z,95.84
2018-08-16T04:38:25.053Z,95.94
2018-08-16T04:39:25.037Z,95.36
2018-08-16T04:40:25.013Z,95.94
2018-08-16T04:41:25.006Z,95.84
2018-08-16T04:42:24.978Z,95.94
2018-08-16T04:43:24.962Z,96.03
2018-08-16T04:44:24.943Z,96.51
2018-08-16T04:45:24.927Z,95.46
2018-08-16T04:46:24.905Z,96.22
2018-08-16T04:47:24.888Z,96.22
2018-08-16T04:48:24.920Z,95.65
2018-08-16T04:49:24.855Z,96.22
2018-08-16T04:50:24.837Z,96.13
2018-08-16T04:51:24.815Z,96.94
2018-08-16T04:52:24.803Z,96.32
2018-08-16T04:53:24.781Z,96.66
2018-08-16T04:54:24.765Z,96.66
2018-08-16T04:55:24.740Z,96.56
2018-08-16T04:56:24.726Z,96.47
2018-08-16T04:57:24.704Z,96.37
2018-08-16T04:58:24.690Z,96.94
2018-08-16T04:59:24.672Z,96.56
2018-08-16T05:00:24.653Z,96.75
2018-08-16T05:01:24.634Z,96.66
2018-08-16T05:02:24.616Z,96.27
2018-08-16T05:03:24.599Z,96.66
2018-08-16T05:04:24.582Z,96.75
2018-08-16T05:05:24.562Z,96.94
2018-08-16T05:06:24.546Z,96.47
2018-08-16T05:07:24.526Z,96.75
2018-08-16T05:08:24.509Z,96.47
2018-08-16T05:09:24.491Z,96.94
2018-08-16T05:10:24.467Z,96.84
2018-08-16T05:11:24.451Z,96.75
2018-08-16T05:12:24.434Z,97.52
2018-08-16T05:13:24.422Z,97.23
2018-08-16T05:14:24.396Z,96.56
2018-08-16T05:15:24.382Z,96.66
2018-08-16T05:16:24.359Z,96.56
2018-08-16T05:17:24.441Z,96.61
2018-08-16T05:18:24.326Z,96.61
2018-08-16T05:19:24.308Z,97.66
2018-08-16T05:20:24.290Z,97.66
2018-08-16T05:21:24.271Z,96.99
2018-08-16T05:22:24.255Z,97.38
2018-08-16T05:23:24.234Z,96.80
2018-08-16T05:24:24.215Z,96.70
2018-08-16T05:25:24.201Z,96.51
2018-08-16T05:26:24.182Z,96.51
2018-08-16T05:27:24.164Z,97.56
2018-08-16T05:28:24.145Z,97.47
2018-08-16T05:29:24.127Z,97.23
2018-08-16T05:30:24.109Z,96.66
2018-08-16T05:31:24.092Z,96.08
2018-08-16T05:32:24.071Z,96.47
2018-08-16T05:33:24.051Z,96.75
2018-08-16T05:34:24.038Z,96.75
2018-08-16T05:35:24.019Z,96.94
2018-08-16T05:36:24.001Z,97.71
2018-08-16T05:37:23.982Z,97.90
2018-08-16T05:38:23.970Z,97.04
2018-08-16T05:39:23.948Z,96.94
2018-08-16T05:40:23.931Z,97.23
2018-08-16T05:41:23.913Z,97.04
2018-08-16T05:42:23.896Z,97.52
2018-08-16T05:43:23.935Z,97.71
2018-08-16T05:44:23.860Z,97.61
2018-08-16T05:45:23.841Z,96.89
2018-08-16T05:46:23.824Z,97.19
2018-08-16T05:47:23.803Z,96.99
2018-08-16T05:48:23.784Z,95.65
2018-08-16T05:49:23.769Z,97.09
2018-08-16T05:50:23.754Z,96.22
2018-08-16T05:51:23.731Z,96.80
2018-08-16T05:52:23.714Z,96.89
2018-08-16T05:53:23.700Z,96.61
2018-08-16T05:54:23.680Z,96.03
2018-08-16T05:55:23.662Z,96.22
2018-08-16T05:56:23.644Z,95.65
2018-08-16T05:57:23.626Z,96.85
2018-08-16T05:58:23.607Z,96.51
2018-08-16T05:59:23.667Z,96.08
2018-08-16T06:00:23.577Z,96.18
2018-08-16T06:01:23.562Z,95.98
2018-08-16T06:02:23.538Z,95.12
2018-08-16T06:03:23.522Z,94.83
2018-08-16T06:04:23.507Z,95.03
2018-08-16T06:05:23.486Z,94.74
2018-08-16T06:06:23.471Z,94.54
2018-08-16T06:07:23.458Z,94.69
2018-08-16T06:08:23.436Z,94.49
2018-08-16T06:09:23.420Z,94.98
2018-08-16T06:10:23.399Z,94.40
2018-08-16T06:11:23.380Z,93.82
2018-08-16T06:12:23.369Z,93.54
2018-08-16T06:13:23.351Z,93.92
2018-08-16T06:14:23.334Z,93.87
2018-08-16T06:15:23.367Z,93.39
2018-08-16T06:16:23.296Z,93.68
2018-08-16T06:17:23.281Z,92.52
2018-08-16T06:18:23.268Z,92.91
2018-08-16T06:19:23.247Z,92.81
2018-08-16T06:20:23.229Z,92.14
2018-08-16T06:21:23.215Z,91.47
2018-08-16T06:22:23.192Z,90.36
2018-08-16T06:23:23.175Z,91.71
2018-08-16T06:24:23.162Z,91.42
2018-08-16T06:25:23.144Z,91.71
2018-08-16T06:26:23.127Z,91.13
2018-08-16T06:27:23.108Z,91.42
2018-08-16T06:28:23.090Z,90.55
2018-08-16T06:29:23.077Z,90.17
2018-08-16T06:30:23.063Z,89.92
2018-08-16T06:31:23.044Z,89.92
2018-08-16T06:32:23.028Z,89.73
2018-08-16T06:33:23.006Z,89.35
2018-08-16T06:34:22.993Z,88.39
2018-08-16T06:35:22.972Z,87.04
2018-08-16T06:36:22.955Z,87.76
2018-08-16T06:37:22.939Z,87.08
2018-08-16T06:38:22.923Z,86.99
2018-08-16T06:39:22.911Z,85.54
2018-08-16T06:40:22.888Z,85.64
2018-08-16T06:41:22.872Z,85.54
2018-08-16T06:42:22.861Z,84.67
2018-08-16T06:43:22.840Z,85.39
2018-08-16T06:44:22.827Z,84.33
2018-08-16T06:45:22.813Z,84.33
2018-08-16T06:46:22.857Z,84.23
2018-08-16T06:47:22.779Z,84.14
2018-08-16T06:48:22.760Z,83.31
2018-08-16T06:49:22.743Z,83.03
2018-08-16T06:50:22.730Z,82.45
2018-08-16T06:51:22.714Z,82.45
2018-08-16T06:52:22.702Z,83.22
2018-08-16T06:53:22.680Z,81.87
2018-08-16T06:54:22.667Z,79.69
2018-08-16T06:55:22.652Z,79.31
2018-08-16T06:56:22.631Z,80.08
2018-08-16T06:57:22.617Z,79.79
2018-08-16T06:58:22.624Z,79.69
2018-08-16T06:59:22.583Z,79.60
2018-08-16T07:00:22.573Z,79.11
2018-08-16T07:01:22.552Z,78.86
2018-08-16T07:02:22.541Z,79.35
2018-08-16T07:03:22.523Z,79.16
2018-08-16T07:04:22.516Z,78.48
2018-08-16T07:05:22.492Z,78.38
2018-08-16T07:06:22.476Z,77.42
2018-08-16T07:07:22.458Z,76.98
2018-08-16T07:08:22.445Z,76.59
2018-08-16T07:09:22.426Z,77.75
2018-08-16T07:10:22.412Z,76.98
2018-08-16T07:11:22.402Z,77.01
2018-08-16T07:12:22.455Z,76.15
2018-08-16T07:13:22.365Z,74.93
2018-08-16T07:14:22.356Z,74.29
2018-08-16T07:15:22.336Z,73.16
2018-08-16T07:16:22.320Z,69.75
2018-08-16T07:17:22.310Z,67.37
2018-08-16T07:18:22.295Z,64.98
2018-08-16T07:19:22.278Z,64.75
2018-08-16T07:20:22.267Z,63.20
2018-08-16T07:21:22.250Z,61.42
2018-08-16T07:22:22.235Z,60.64
2018-08-16T07:23:22.232Z,59.70
2018-08-16T07:24:22.236Z,59.15
2018-08-16T07:25:22.188Z,58.40
2018-08-16T07:26:22.178Z,57.82
2018-08-16T07:27:22.164Z,56.32
2018-08-16T07:28:22.147Z,54.50
2018-08-16T07:29:22.137Z,53.06
2018-08-16T07:30:22.120Z,52.38
2018-08-16T07:31:22.111Z,51.73
2018-08-16T07:32:22.093Z,51.14
2018-08-16T07:33:22.081Z,51.24
2018-08-16T07:34:22.069Z,51.56
2018-08-16T07:35:22.056Z,50.99
2018-08-16T07:36:22.048Z,50.14
2018-08-16T07:37:22.032Z,49.07
2018-08-16T07:38:22.021Z,47.83
2018-08-16T07:39:22.011Z,49.10
2018-08-16T07:40:22.000Z,47.56
2018-08-16T07:41:21.989Z,47.17
2018-08-16T07:42:21.979Z,48.22
2018-08-16T07:43:21.969Z,47.17
2018-08-16T07:44:21.958Z,46.58
2018-08-16T07:45:21.951Z,47.07
2018-08-16T07:46:22.095Z,47.46
2018-08-16T07:47:21.936Z,47.75
2018-08-16T07:48:21.924Z,46.11
2018-08-16T07:49:21.958Z,45.65
2018-08-16T07:50:21.909Z,45.04
2018-08-16T07:51:22.066Z,44.16
2018-08-16T07:52:21.891Z,45.14
2018-08-16T07:53:21.884Z,45.14
2018-08-16T07:54:21.878Z,45.12
2018-08-16T07:55:21.870Z,45.61
2018-08-16T07:56:21.861Z,45.70
2018-08-16T07:57:21.854Z,45.41
2018-08-16T07:58:21.903Z,47.07
2018-08-16T07:59:21.843Z,44.12
2018-08-16T08:00:21.835Z,45.65
2018-08-16T08:01:21.830Z,47.22
2018-08-16T08:02:21.824Z,47.90
2018-08-16T08:03:21.821Z,48.29
2018-08-16T08:04:21.811Z,47.22
2018-08-16T08:05:21.807Z,46.66
2018-08-16T08:06:21.801Z,47.34
2018-08-16T08:07:21.795Z,45.65
2018-08-16T08:08:21.792Z,45.58
2018-08-16T08:09:21.898Z,46.73
2018-08-16T08:10:21.782Z,47.05
2018-08-16T08:11:21.772Z,45.78
2018-08-16T08:12:21.768Z,44.21
2018-08-16T08:13:21.760Z,44.73
2018-08-16T08:14:21.760Z,43.65
2018-08-16T08:15:21.804Z,43.48
2018-08-16T08:16:21.751Z,43.08
2018-08-16T08:17:21.740Z,43.20
2018-08-16T08:18:21.739Z,42.44
2018-08-16T08:19:21.731Z,41.41
2018-08-16T08:20:21.727Z,40.94
2018-08-16T08:21:21.723Z,39.59
2018-08-16T08:22:21.717Z,39.88
2018-08-16T08:23:21.712Z,39.31
2018-08-16T08:24:21.709Z,38.54
2018-08-16T08:25:21.748Z,38.15
2018-08-16T08:26:21.699Z,38.23
2018-08-16T08:27:21.700Z,39.19
2018-08-16T08:28:21.690Z,40.27
2018-08-16T08:29:21.687Z,39.80
2018-08-16T08:30:21.681Z,39.92
2018-08-16T08:31:21.678Z,39.51
2018-08-16T08:32:21.678Z,39.53
2018-08-16T08:33:21.670Z,39.37
2018-08-16T08:34:21.667Z,36.83
2018-08-16T08:35:21.668Z,36.47
2018-08-16T08:36:21.654Z,34.63
2018-08-16T08:37:21.652Z,35.20
2018-08-16T08:38:21.655Z,36.57
2018-08-16T08:39:21.645Z,36.28
2018-08-16T08:40:21.639Z,34.72
2018-08-16T08:41:21.636Z,34.44
2018-08-16T08:42:21.633Z,34.15
2018-08-16T08:43:21.629Z,34.36
2018-08-16T08:44:21.624Z,32.41
2018-08-16T08:45:21.634Z,33.08
2018-08-16T08:46:21.617Z,34.05
2018-08-16T08:47:21.614Z,34.28
2018-08-16T08:48:21.610Z,35.16
2018-08-16T08:49:21.604Z,34.67
2018-08-16T08:50:21.658Z,33.31
2018-08-16T08:51:21.603Z,32.34
2018-08-16T08:52:21.598Z,34.03
2018-08-16T08:53:21.591Z,33.07
2018-08-16T08:54:21.595Z,32.07
2018-08-16T08:55:21.585Z,33.94
2018-08-16T08:56:21.579Z,32.93
2018-08-16T08:57:21.575Z,33.29
2018-08-16T08:58:21.575Z,33.39
2018-08-16T08:59:21.628Z,33.59
2018-08-16T09:00:21.565Z,34.67
2018-08-16T09:01:21.559Z,34.18
2018-08-16T09:02:21.556Z,33.89
2018-08-16T09:03:21.555Z,33.48
2018-08-16T09:04:21.546Z,36.01
2018-08-16T09:05:21.544Z,34.05
2018-08-16T09:06:21.544Z,33.36
2018-08-16T09:07:21.534Z,33.26
2018-08-16T09:08:21.530Z,34.74
2018-08-16T09:09:21.528Z,34.56
2018-08-16T09:10:21.534Z,34.47
2018-08-16T09:11:21.520Z,33.59
2018-08-16T09:12:21.519Z,32.71
2018-08-16T09:13:21.508Z,32.81
2018-08-16T09:14:21.505Z,33.38
2018-08-16T09:15:21.503Z,34.25
2018-08-16T09:16:21.495Z,35.60
2018-08-16T09:17:21.493Z,35.68
2018-08-16T09:18:21.493Z,37.33
2018-08-16T09:19:21.485Z,35.94
2018-08-16T09:20:21.478Z,35.75
2018-08-16T09:21:21.473Z,36.22
2018-08-16T09:22:21.468Z,36.59
2018-08-16T09:23:21.466Z,35.93
2018-08-16T09:24:21.473Z,35.93
2018-08-16T09:25:21.456Z,35.32
2018-08-16T09:26:21.454Z,35.93
2018-08-16T09:27:21.446Z,35.53
2018-08-16T09:28:21.441Z,35.55
2018-08-16T09:29:21.436Z,35.85
2018-08-16T09:30:21.438Z,36.24
2018-08-16T09:31:21.539Z,36.43
2018-08-16T09:32:21.422Z,37.39
2018-08-16T09:33:21.420Z,38.18
2018-08-16T09:34:21.425Z,36.80
2018-08-16T09:35:24.235Z,35.81
2018-08-16T09:36:21.404Z,35.38
2018-08-16T09:37:21.400Z,36.46
2018-08-16T09:38:21.397Z,37.73
2018-08-16T09:39:21.537Z,39.28
2018-08-16T09:40:21.387Z,39.96
2018-08-16T09:41:21.382Z,40.27
2018-08-16T09:42:21.377Z,37.34
2018-08-16T09:43:21.373Z,37.02
2018-08-16T09:44:21.368Z,37.52
2018-08-16T09:45:21.433Z,38.89
2018-08-16T09:46:21.357Z,37.91
2018-08-16T09:47:21.354Z,38.18
2018-08-16T09:48:21.349Z,39.45
2018-08-16T09:49:21.341Z,39.16
2018-08-16T09:50:21.337Z,39.53
2018-08-16T09:51:21.337Z,39.04
2018-08-16T09:52:21.325Z,40.11
2018-08-16T09:53:21.320Z,41.77
2018-08-16T09:54:21.316Z,41.87
2018-08-16T09:55:21.311Z,41.77
2018-08-16T09:56:21.306Z,41.09
2018-08-16T09:57:21.300Z,41.97
2018-08-16T09:58:21.293Z,41.28
2018-08-16T09:59:21.287Z,40.82
2018-08-16T10:00:21.292Z,40.80
2018-08-16T10:01:21.279Z,39.82
2018-08-16T10:02:21.274Z,39.51
2018-08-16T10:03:21.266Z,40.09
2018-08-16T10:04:21.266Z,40.58
2018-08-16T10:05:21.258Z,41.56
2018-08-16T10:06:21.249Z,40.78
2018-08-16T10:07:21.252Z,40.88
2018-08-16T10:08:21.238Z,41.85
2018-08-16T10:09:21.231Z,42.34
2018-08-16T10:10:21.226Z,41.15
2018-08-16T10:11:21.226Z,43.29
2018-08-16T10:12:21.213Z,41.93
2018-08-16T10:13:21.241Z,42.90
2018-08-16T10:14:21.204Z,42.02
2018-08-16T10:15:21.198Z,40.76
2018-08-16T10:16:21.191Z,41.85
2018-08-16T10:17:21.185Z,42.73
2018-08-16T10:18:21.230Z,41.85
2018-08-16T10:19:21.175Z,40.78
2018-08-16T10:20:21.168Z,40.58
2018-08-16T10:21:21.161Z,41.07
2018-08-16T10:22:21.158Z,40.48
2018-08-16T10:23:21.151Z,40.48
2018-08-16T10:24:21.146Z,39.02
2018-08-16T10:25:21.142Z,39.61
2018-08-16T10:26:21.136Z,39.20
2018-08-16T10:27:21.125Z,39.49
2018-08-16T10:28:21.120Z,40.76
2018-08-16T10:29:21.114Z,41.44
2018-08-16T10:30:21.108Z,40.56
2018-08-16T10:31:21.101Z,40.56
2018-08-16T10:32:21.095Z,42.02
2018-08-16T10:33:21.088Z,41.17
2018-08-16T10:34:21.091Z,40.78
2018-08-16T10:35:21.077Z,42.14
2018-08-16T10:36:21.072Z,39.70
2018-08-16T10:37:21.066Z,39.02
2018-08-16T10:38:21.057Z,40.17
2018-08-16T10:39:21.053Z,39.59
2018-08-16T10:40:21.046Z,40.76
2018-08-16T10:41:21.041Z,40.56
2018-08-16T10:42:21.032Z,40.66
2018-08-16T10:43:21.028Z,40.56
2018-08-16T10:44:21.023Z,40.66
2018-08-16T10:45:21.016Z,39.37
2018-08-16T10:46:21.010Z,39.86
2018-08-16T10:47:21.005Z,40.45
2018-08-16T10:48:20.995Z,41.32
2018-08-16T10:49:20.987Z,41.42
2018-08-16T10:50:20.984Z,42.32
2018-08-16T10:51:20.976Z,41.63
2018-08-16T10:52:20.977Z,41.85
2018-08-16T10:53:20.963Z,41.36
2018-08-16T10:54:20.961Z,42.44
2018-08-16T10:55:20.954Z,41.09
2018-08-16T10:56:20.947Z,41.28
2018-08-16T10:57:20.938Z,40.11
2018-08-16T10:58:20.934Z,40.50
2018-08-16T10:59:20.926Z,41.21
2018-08-16T11:00:20.921Z,38.38
2018-08-16T11:01:21.011Z,38.38
2018-08-16T11:02:20.918Z,39.65
2018-08-16T11:03:20.900Z,39.65
2018-08-16T11:04:20.891Z,39.84
2018-08-16T11:05:20.896Z,38.87
2018-08-16T11:06:20.879Z,39.26
2018-08-16T11:07:20.881Z,39.36
2018-08-16T11:08:20.866Z,39.84
2018-08-16T11:09:20.860Z,40.72
2018-08-16T11:10:20.855Z,38.67
2018-08-16T11:11:20.851Z,38.48
2018-08-16T11:12:20.840Z,38.28
2018-08-16T11:13:20.843Z,39.67
2018-08-16T11:14:20.828Z,37.99
2018-08-16T11:15:20.823Z,39.28
2018-08-16T11:16:20.815Z,40.84
2018-08-16T11:17:20.815Z,40.84
2018-08-16T11:18:20.810Z,40.47
2018-08-16T11:19:20.798Z,40.17
2018-08-16T11:20:20.797Z,38.51
2018-08-16T11:22:23.361Z,40.76
2018-08-16T11:23:23.353Z,38.81
2018-08-16T11:24:23.349Z,37.14
2018-08-16T11:25:23.335Z,36.46
2018-08-16T11:26:23.331Z,36.46
2018-08-16T11:27:23.323Z,36.75
2018-08-16T11:28:23.319Z,36.85
2018-08-16T11:29:23.405Z,36.26
2018-08-16T11:30:23.305Z,35.85
2018-08-16T11:31:23.301Z,35.85
2018-08-16T11:32:23.291Z,37.02
2018-08-16T11:33:23.287Z,38.30
2018-08-16T11:34:23.279Z,36.44
2018-08-16T11:35:23.277Z,36.73
2018-08-16T11:36:23.270Z,37.12
2018-08-16T11:37:23.266Z,38.20
2018-08-16T11:38:23.256Z,36.34
2018-08-16T11:39:23.250Z,37.41
2018-08-16T11:40:23.244Z,37.04
2018-08-16T11:41:23.238Z,36.75
2018-08-16T11:42:23.233Z,36.46
2018-08-16T11:43:23.224Z,35.87
2018-08-16T11:44:23.219Z,36.57
2018-08-16T11:45:23.215Z,36.08
2018-08-16T11:46:23.214Z,35.99
2018-08-16T11:47:23.204Z,35.89
2018-08-16T11:48:23.195Z,34.52
2018-08-16T11:49:23.190Z,35.87
2018-08-16T11:50:23.191Z,36.26
2018-08-16T11:51:23.177Z,36.36
2018-08-16T11:52:23.180Z,36.07
2018-08-16T11:53:23.170Z,35.38
2018-08-16T11:54:23.163Z,36.46
2018-08-16T11:55:23.152Z,37.04
2018-08-16T11:56:23.200Z,36.85
2018-08-16T11:57:23.143Z,36.85
2018-08-16T11:58:23.139Z,37.35
2018-08-16T11:59:23.129Z,36.87
2018-08-16T12:00:23.129Z,36.47
2018-08-16T12:01:23.117Z,35.60
2018-08-16T12:02:23.114Z,36.28
2018-08-16T12:03:23.107Z,35.52
2018-08-16T12:04:23.102Z,34.93
2018-08-16T12:05:23.105Z,35.24
2018-08-16T12:06:23.144Z,35.44
2018-08-16T12:07:23.087Z,34.77
2018-08-16T12:08:23.083Z,32.61
2018-08-16T12:09:23.079Z,33.22
2018-08-16T12:10:23.074Z,32.92
2018-08-16T12:11:23.069Z,32.25
2018-08-16T12:12:23.066Z,32.86
2018-08-16T12:13:23.110Z,32.20
2018-08-16T12:15:10.641Z,29.99
2018-08-16T12:16:10.605Z,28.82
2018-08-16T12:17:10.598Z,28.65
2018-08-16T12:18:10.594Z,26.98
2018-08-16T12:19:10.595Z,26.98
2018-08-16T12:20:10.586Z,27.09
2018-08-16T12:21:10.737Z,26.10
2018-08-16T12:22:10.590Z,27.27
2018-08-16T12:23:10.576Z,27.97
2018-08-16T12:24:10.582Z,28.30
2018-08-16T12:25:10.569Z,27.13
2018-08-16T12:26:10.572Z,27.14
2018-08-16T12:27:10.565Z,25.96
2018-08-16T12:28:10.559Z,24.39
2018-08-16T12:29:10.561Z,24.29
2018-08-16T12:30:10.552Z,25.08
2018-08-16T12:31:10.553Z,25.28
2018-08-16T12:32:10.547Z,25.77
2018-08-16T12:33:10.546Z,25.48
2018-08-16T12:34:10.540Z,24.57
2018-08-16T12:35:10.535Z,24.57
2018-08-16T12:36:10.533Z,24.48
2018-08-16T12:37:10.527Z,24.66
2018-08-16T12:38:10.525Z,25.26
2018-08-16T12:39:10.523Z,25.95
2018-08-16T12:40:10.518Z,24.76
2018-08-16T12:41:10.584Z,25.74
2018-08-16T12:42:10.536Z,25.55
2018-08-16T12:43:10.511Z,24.76
2018-08-16T12:44:10.505Z,25.24
2018-08-16T12:45:10.502Z,25.23
2018-08-16T12:46:10.536Z,26.31
2018-08-16T12:47:10.521Z,25.82
2018-08-16T12:48:10.493Z,25.52
2018-08-16T12:49:10.486Z,26.79
2018-08-16T12:50:10.484Z,27.19
2018-08-16T12:51:10.480Z,26.79
2018-08-16T12:52:10.477Z,25.99
2018-08-16T12:53:10.474Z,26.08
2018-08-16T12:54:10.467Z,27.06